QLK1800 YPAD-YBBN
Flight info
| Callsign | QLK1800 |
|---|---|
| Flight time | N/A |
| Altitude | 37000 |
| Route | UPROT Y27 IGIPA Y46 EMTID Y27 ENLIP |
| Aircraft | E190/M-SDE3GILORVW/S |
Departure
| Time | 2026-05-04 00:12 |
|---|---|
| Airport | Adelaide International Airport (YPAD) |
Arrival
| Time | N/A |
|---|---|
| Airport | Brisbane International Airport (YBBN) |
| Time | Latitude | Longitude | Altitude | Speed | Heading |
|---|---|---|---|---|---|
| 2026-05-03 23:48 | -34.94057 | 138.53662 | 26 ft | 0 kts | 320° |
| 2026-05-04 00:04 | -34.94074 | 138.53679 | 25 ft | 4 kts | 320° |
| 2026-05-04 00:04 | -34.94095 | 138.53699 | 27 ft | 4 kts | 324° |
| 2026-05-04 00:05 | -34.94118 | 138.53715 | 27 ft | 4 kts | 350° |
| 2026-05-04 00:05 | -34.94134 | 138.53714 | 28 ft | 0 kts | 50° |
| 2026-05-04 00:08 | -34.94130 | 138.53719 | 26 ft | 1 kts | 47° |
| 2026-05-04 00:09 | -34.94118 | 138.53735 | 25 ft | 4 kts | 49° |
| 2026-05-04 00:09 | -34.94095 | 138.53769 | 25 ft | 6 kts | 50° |
| 2026-05-04 00:09 | -34.94062 | 138.53816 | 27 ft | 8 kts | 50° |
| 2026-05-04 00:09 | -34.94056 | 138.53867 | 25 ft | 6 kts | 101° |
| 2026-05-04 00:10 | -34.94073 | 138.53898 | 25 ft | 4 kts | 134° |
| 2026-05-04 00:10 | -34.94099 | 138.53927 | 25 ft | 6 kts | 137° |
| 2026-05-04 00:10 | -34.94137 | 138.53968 | 24 ft | 8 kts | 139° |
| 2026-05-04 00:10 | -34.94186 | 138.54020 | 24 ft | 10 kts | 139° |
| 2026-05-04 00:11 | -34.94247 | 138.54040 | 24 ft | 9 kts | 199° |
| 2026-05-04 00:11 | -34.94280 | 138.54008 | 24 ft | 0 kts | 226° |
| 2026-05-04 00:11 | -34.94322 | 138.53952 | 25 ft | 34 kts | 229° |
| 2026-05-04 00:11 | -34.94639 | 138.53491 | 25 ft | 108 kts | 230° |
| 2026-05-04 00:12 | -34.95256 | 138.52569 | 53 ft | 169 kts | 231° |
| 2026-05-04 00:12 | -34.96068 | 138.51336 | 534 ft | 202 kts | 232° |
| 2026-05-04 00:12 | -34.96985 | 138.49908 | 1266 ft | 220 kts | 232° |
| 2026-05-04 00:12 | -34.97893 | 138.48530 | 2110 ft | 223 kts | 232° |
| 2026-05-04 00:13 | -34.98913 | 138.47061 | 2988 ft | 234 kts | 230° |
| 2026-05-04 00:13 | -35.00044 | 138.45497 | 3617 ft | 254 kts | 230° |
| 2026-05-04 00:13 | -35.01203 | 138.43835 | 4607 ft | 259 kts | 231° |
| 2026-05-04 00:13 | -35.02575 | 138.42410 | 5638 ft | 264 kts | 208° |
| 2026-05-04 00:14 | -35.04359 | 138.41936 | 6665 ft | 269 kts | 181° |
| 2026-05-04 00:14 | -35.06192 | 138.42462 | 7557 ft | 277 kts | 156° |
| 2026-05-04 00:14 | -35.07595 | 138.43660 | 8308 ft | 283 kts | 142° |
| 2026-05-04 00:14 | -35.09068 | 138.45380 | 9132 ft | 289 kts | 136° |
| 2026-05-04 00:15 | -35.10320 | 138.47332 | 9942 ft | 296 kts | 124° |
| 2026-05-04 00:15 | -35.11091 | 138.49728 | 10451 ft | 316 kts | 97° |
| 2026-05-04 00:15 | -35.11037 | 138.52469 | 10991 ft | 331 kts | 79° |
| 2026-05-04 00:15 | -35.10472 | 138.55219 | 11769 ft | 336 kts | 75° |
| 2026-05-04 00:16 | -35.10028 | 138.58034 | 12616 ft | 339 kts | 84° |
| 2026-05-04 00:16 | -35.09533 | 138.60860 | 13395 ft | 344 kts | 66° |
| 2026-05-04 00:16 | -35.08192 | 138.63268 | 14259 ft | 344 kts | 47° |
| 2026-05-04 00:16 | -35.06577 | 138.65410 | 15093 ft | 349 kts | 45° |
| 2026-05-04 00:17 | -35.04946 | 138.67517 | 15873 ft | 354 kts | 45° |
| 2026-05-04 00:17 | -35.03254 | 138.69728 | 16655 ft | 359 kts | 45° |
| 2026-05-04 00:17 | -35.01548 | 138.71968 | 17434 ft | 363 kts | 45° |
| 2026-05-04 00:17 | -34.99818 | 138.74233 | 18200 ft | 367 kts | 45° |
| 2026-05-04 00:18 | -34.98062 | 138.76510 | 18933 ft | 371 kts | 45° |
| 2026-05-04 00:18 | -34.96339 | 138.78740 | 19618 ft | 375 kts | 45° |
| 2026-05-04 00:18 | -34.94551 | 138.81084 | 20308 ft | 380 kts | 45° |
| 2026-05-04 00:18 | -34.92754 | 138.83476 | 20954 ft | 384 kts | 45° |
| 2026-05-04 00:19 | -34.91002 | 138.85809 | 21548 ft | 388 kts | 45° |
| 2026-05-04 00:19 | -34.89461 | 138.87857 | 22061 ft | 391 kts | 45° |
| 2026-05-04 00:19 | -34.87631 | 138.90284 | 22633 ft | 395 kts | 45° |
| 2026-05-04 00:19 | -34.85758 | 138.92762 | 23189 ft | 399 kts | 45° |
| 2026-05-04 00:20 | -34.83870 | 138.95258 | 23767 ft | 403 kts | 45° |
| 2026-05-04 00:20 | -34.81963 | 138.97776 | 24304 ft | 407 kts | 45° |
| 2026-05-04 00:20 | -34.80039 | 139.00318 | 24891 ft | 410 kts | 45° |
| 2026-05-04 00:20 | -34.78100 | 139.02881 | 25454 ft | 413 kts | 45° |
| 2026-05-04 00:21 | -34.76142 | 139.05458 | 25994 ft | 416 kts | 45° |
| 2026-05-04 00:21 | -34.74184 | 139.08038 | 26495 ft | 419 kts | 45° |
| 2026-05-04 00:21 | -34.72407 | 139.10378 | 26937 ft | 422 kts | 45° |
| 2026-05-04 00:21 | -34.70646 | 139.12697 | 27342 ft | 425 kts | 44° |
| 2026-05-04 00:22 | -34.68717 | 139.15234 | 27780 ft | 427 kts | 44° |
| 2026-05-04 00:22 | -34.66692 | 139.17894 | 28222 ft | 430 kts | 44° |
| 2026-05-04 00:22 | -34.64654 | 139.20568 | 28648 ft | 433 kts | 44° |
| 2026-05-04 00:22 | -34.62604 | 139.23257 | 29052 ft | 435 kts | 44° |
| 2026-05-04 00:23 | -34.60786 | 139.25639 | 29495 ft | 434 kts | 44° |
| 2026-05-04 00:23 | -34.58723 | 139.28335 | 29861 ft | 437 kts | 44° |
| 2026-05-04 00:23 | -34.56782 | 139.31198 | 30065 ft | 448 kts | 56° |
| 2026-05-04 00:23 | -34.55667 | 139.33950 | 30084 ft | 459 kts | 65° |
| 2026-05-04 00:24 | -34.54591 | 139.37425 | 30209 ft | 467 kts | 68° |
| 2026-05-04 00:24 | -34.53621 | 139.40662 | 30556 ft | 466 kts | 67° |
| 2026-05-04 00:24 | -34.52443 | 139.44496 | 31037 ft | 465 kts | 67° |
| 2026-05-04 00:24 | -34.51292 | 139.48157 | 31470 ft | 464 kts | 66° |
| 2026-05-04 00:25 | -34.50137 | 139.51807 | 31848 ft | 464 kts | 66° |
| 2026-05-04 00:25 | -34.49023 | 139.55315 | 32199 ft | 464 kts | 66° |
| 2026-05-04 00:25 | -34.47944 | 139.58704 | 32552 ft | 463 kts | 66° |
| 2026-05-04 00:25 | -34.46780 | 139.62352 | 32883 ft | 464 kts | 66° |
| 2026-05-04 00:26 | -34.45616 | 139.65996 | 33218 ft | 464 kts | 66° |
| 2026-05-04 00:26 | -34.44451 | 139.69636 | 33554 ft | 464 kts | 66° |
| 2026-05-04 00:26 | -34.43352 | 139.73072 | 33810 ft | 464 kts | 66° |
| 2026-05-04 00:26 | -34.42185 | 139.76717 | 34092 ft | 464 kts | 66° |
| 2026-05-04 00:27 | -34.41084 | 139.80154 | 34357 ft | 464 kts | 66° |
| 2026-05-04 00:27 | -34.39914 | 139.83800 | 34632 ft | 464 kts | 66° |
| 2026-05-04 00:27 | -34.38768 | 139.87368 | 34896 ft | 464 kts | 66° |
| 2026-05-04 00:27 | -34.37599 | 139.91005 | 35158 ft | 464 kts | 66° |
| 2026-05-04 00:28 | -34.36427 | 139.94644 | 35392 ft | 464 kts | 66° |
| 2026-05-04 00:28 | -34.35317 | 139.98088 | 35628 ft | 464 kts | 66° |
| 2026-05-04 00:28 | -34.34195 | 140.01570 | 35842 ft | 464 kts | 66° |
| 2026-05-04 00:28 | -34.33086 | 140.05012 | 36076 ft | 464 kts | 66° |
| 2026-05-04 00:29 | -34.31913 | 140.08647 | 36303 ft | 464 kts | 66° |
| 2026-05-04 00:29 | -34.30784 | 140.12146 | 36483 ft | 465 kts | 66° |
| 2026-05-04 00:29 | -34.29606 | 140.15788 | 36682 ft | 465 kts | 65° |
| 2026-05-04 00:29 | -34.28495 | 140.19229 | 36965 ft | 462 kts | 65° |
| 2026-05-04 00:30 | -34.27333 | 140.22822 | 37156 ft | 457 kts | 65° |
| 2026-05-04 00:30 | -34.26568 | 140.25184 | 37143 ft | 455 kts | 65° |
| 2026-05-04 00:30 | -34.24489 | 140.31586 | 37056 ft | 451 kts | 65° |
| 2026-05-04 00:31 | -34.22262 | 140.38416 | 37033 ft | 450 kts | 65° |
| 2026-05-04 00:31 | -34.19954 | 140.45460 | 37033 ft | 451 kts | 65° |
| 2026-05-04 00:32 | -34.18057 | 140.51247 | 37031 ft | 451 kts | 65° |
| 2026-05-04 00:32 | -34.15749 | 140.58285 | 37032 ft | 450 kts | 65° |
| 2026-05-04 00:33 | -34.12385 | 140.68511 | 37046 ft | 450 kts | 65° |
| 2026-05-04 00:34 | -34.10287 | 140.74866 | 37038 ft | 450 kts | 65° |
| 2026-05-04 00:34 | -34.07966 | 140.81879 | 37043 ft | 450 kts | 65° |
| 2026-05-04 00:35 | -34.05724 | 140.88654 | 37042 ft | 450 kts | 65° |
| 2026-05-04 00:35 | -34.03415 | 140.95601 | 37040 ft | 450 kts | 65° |
| 2026-05-04 00:36 | -34.01477 | 141.01416 | 37039 ft | 450 kts | 65° |
| 2026-05-04 00:36 | -33.99146 | 141.08404 | 37044 ft | 449 kts | 64° |
| 2026-05-04 00:37 | -33.96831 | 141.15331 | 37044 ft | 450 kts | 64° |
| 2026-05-04 00:37 | -33.94704 | 141.21683 | 37043 ft | 449 kts | 64° |
| 2026-05-04 00:38 | -33.92363 | 141.28660 | 37041 ft | 449 kts | 64° |
| 2026-05-04 00:38 | -33.90043 | 141.35560 | 37044 ft | 449 kts | 64° |
| 2026-05-04 00:39 | -33.87696 | 141.42524 | 37043 ft | 449 kts | 64° |
| 2026-05-04 00:39 | -33.85372 | 141.49404 | 37045 ft | 449 kts | 64° |
| 2026-05-04 00:40 | -33.83021 | 141.56353 | 37047 ft | 448 kts | 64° |
| 2026-05-04 00:40 | -33.80675 | 141.63268 | 37054 ft | 448 kts | 64° |
| 2026-05-04 00:41 | -33.78309 | 141.70237 | 37051 ft | 448 kts | 64° |
| 2026-05-04 00:41 | -33.75947 | 141.77171 | 37052 ft | 448 kts | 64° |
| 2026-05-04 00:42 | -33.73583 | 141.84099 | 37051 ft | 448 kts | 64° |
| 2026-05-04 00:42 | -33.71290 | 141.91064 | 37053 ft | 448 kts | 64° |
| 2026-05-04 00:43 | -33.68992 | 141.98025 | 37050 ft | 448 kts | 64° |
| 2026-05-04 00:43 | -33.66689 | 142.04979 | 37051 ft | 448 kts | 64° |
| 2026-05-04 00:44 | -33.64400 | 142.11882 | 37050 ft | 448 kts | 64° |
| 2026-05-04 00:44 | -33.62089 | 142.18825 | 37051 ft | 448 kts | 64° |
| 2026-05-04 00:45 | -33.59775 | 142.25769 | 37053 ft | 448 kts | 64° |
| 2026-05-04 00:45 | -33.57456 | 142.32702 | 37053 ft | 448 kts | 64° |
| 2026-05-04 00:46 | -33.55133 | 142.39633 | 37052 ft | 448 kts | 64° |
| 2026-05-04 00:46 | -33.52805 | 142.46564 | 37055 ft | 448 kts | 64° |
| 2026-05-04 00:47 | -33.50476 | 142.53487 | 37049 ft | 448 kts | 64° |
| 2026-05-04 00:47 | -33.48126 | 142.60458 | 37054 ft | 448 kts | 64° |
| 2026-05-04 00:48 | -33.45806 | 142.67329 | 37056 ft | 448 kts | 64° |
| 2026-05-04 00:48 | -33.43470 | 142.74232 | 37053 ft | 447 kts | 63° |
| 2026-05-04 00:49 | -33.41127 | 142.81138 | 37056 ft | 448 kts | 63° |
| 2026-05-04 00:49 | -33.38782 | 142.88037 | 37053 ft | 448 kts | 63° |
| 2026-05-04 00:50 | -33.36433 | 142.94932 | 37052 ft | 447 kts | 63° |
| 2026-05-04 00:50 | -33.34078 | 143.01824 | 37051 ft | 447 kts | 63° |
| 2026-05-04 00:51 | -33.31726 | 143.08708 | 37051 ft | 447 kts | 63° |
| 2026-05-04 00:51 | -33.29363 | 143.15595 | 37051 ft | 448 kts | 63° |
| 2026-05-04 00:52 | -33.27001 | 143.22471 | 37052 ft | 447 kts | 63° |
| 2026-05-04 00:52 | -33.24631 | 143.29342 | 37060 ft | 448 kts | 63° |
| 2026-05-04 00:53 | -33.22265 | 143.36213 | 37060 ft | 447 kts | 63° |
| 2026-05-04 00:53 | -33.19897 | 143.43082 | 37062 ft | 447 kts | 63° |
| 2026-05-04 00:54 | -33.17517 | 143.49940 | 37061 ft | 447 kts | 63° |
| 2026-05-04 00:54 | -33.15133 | 143.56801 | 37062 ft | 447 kts | 63° |
| 2026-05-04 00:55 | -33.12748 | 143.63661 | 37058 ft | 447 kts | 63° |
| 2026-05-04 00:55 | -33.10364 | 143.70510 | 37062 ft | 447 kts | 63° |
| 2026-05-04 00:56 | -33.07972 | 143.77355 | 37060 ft | 447 kts | 63° |
| 2026-05-04 00:56 | -33.05592 | 143.84151 | 37060 ft | 447 kts | 63° |
| 2026-05-04 00:57 | -33.03192 | 143.90985 | 37061 ft | 447 kts | 63° |
| 2026-05-04 00:57 | -33.00797 | 143.97826 | 37061 ft | 447 kts | 63° |
| 2026-05-04 00:58 | -32.97839 | 144.04257 | 37086 ft | 441 kts | 52° |
| 2026-05-04 00:58 | -32.94572 | 144.10446 | 37069 ft | 441 kts | 53° |
| 2026-05-04 00:59 | -32.91321 | 144.16650 | 37070 ft | 442 kts | 53° |
| 2026-05-04 00:59 | -32.88072 | 144.22858 | 37068 ft | 442 kts | 53° |
| 2026-05-04 01:00 | -32.84828 | 144.29068 | 37070 ft | 442 kts | 53° |
| 2026-05-04 01:00 | -32.81582 | 144.35273 | 37068 ft | 442 kts | 53° |
| 2026-05-04 01:01 | -32.78327 | 144.41484 | 37069 ft | 443 kts | 53° |
| 2026-05-04 01:01 | -32.75068 | 144.47691 | 37067 ft | 443 kts | 53° |
| 2026-05-04 01:02 | -32.71805 | 144.53892 | 37052 ft | 443 kts | 53° |
| 2026-05-04 01:02 | -32.68542 | 144.60093 | 37051 ft | 443 kts | 53° |
| 2026-05-04 01:03 | -32.65301 | 144.66240 | 37051 ft | 443 kts | 53° |
| 2026-05-04 01:03 | -32.62057 | 144.72380 | 37050 ft | 443 kts | 53° |
| 2026-05-04 01:04 | -32.58786 | 144.78562 | 37052 ft | 443 kts | 53° |
| 2026-05-04 01:04 | -32.55511 | 144.84744 | 37069 ft | 443 kts | 52° |
| 2026-05-04 01:05 | -32.52230 | 144.90931 | 37095 ft | 444 kts | 53° |
| 2026-05-04 01:05 | -32.48940 | 144.97115 | 37093 ft | 443 kts | 52° |
| 2026-05-04 01:06 | -32.45651 | 145.03290 | 37098 ft | 443 kts | 52° |
| 2026-05-04 01:06 | -32.42353 | 145.09470 | 37105 ft | 444 kts | 52° |
| 2026-05-04 01:07 | -32.39058 | 145.15640 | 37096 ft | 444 kts | 52° |
| 2026-05-04 01:07 | -32.35754 | 145.21810 | 37093 ft | 445 kts | 52° |
| 2026-05-04 01:08 | -32.32443 | 145.27990 | 37103 ft | 445 kts | 52° |
| 2026-05-04 01:08 | -32.29126 | 145.34168 | 37097 ft | 445 kts | 52° |
| 2026-05-04 01:09 | -32.25805 | 145.40336 | 37094 ft | 445 kts | 52° |
| 2026-05-04 01:09 | -32.22483 | 145.46514 | 37125 ft | 446 kts | 52° |
| 2026-05-04 01:10 | -32.19148 | 145.52688 | 37111 ft | 446 kts | 52° |
| 2026-05-04 01:10 | -32.15806 | 145.58863 | 37103 ft | 446 kts | 52° |
| 2026-05-04 01:11 | -32.12470 | 145.65034 | 37107 ft | 446 kts | 52° |
| 2026-05-04 01:11 | -32.09121 | 145.71214 | 37102 ft | 447 kts | 52° |
| 2026-05-04 01:12 | -32.05769 | 145.77390 | 37110 ft | 447 kts | 52° |
| 2026-05-04 01:12 | -32.02417 | 145.83568 | 37108 ft | 447 kts | 52° |
| 2026-05-04 01:13 | -31.99059 | 145.89742 | 37111 ft | 447 kts | 52° |
| 2026-05-04 01:13 | -31.95698 | 145.95914 | 37109 ft | 447 kts | 51° |
| 2026-05-04 01:14 | -31.92332 | 146.02073 | 37105 ft | 447 kts | 51° |
| 2026-05-04 01:14 | -31.88967 | 146.08226 | 37102 ft | 447 kts | 51° |
| 2026-05-04 01:15 | -31.85615 | 146.14333 | 37104 ft | 447 kts | 52° |
| 2026-05-04 01:15 | -31.82245 | 146.20484 | 37111 ft | 447 kts | 51° |
| 2026-05-04 01:16 | -31.78860 | 146.26625 | 37107 ft | 447 kts | 51° |
| 2026-05-04 01:16 | -31.75478 | 146.32776 | 37108 ft | 449 kts | 51° |
| 2026-05-04 01:17 | -31.72089 | 146.38935 | 37110 ft | 449 kts | 51° |
| 2026-05-04 01:17 | -31.68697 | 146.45086 | 37110 ft | 449 kts | 51° |
| 2026-05-04 01:18 | -31.65294 | 146.51229 | 37107 ft | 449 kts | 51° |
| 2026-05-04 01:18 | -31.62458 | 146.56344 | 37104 ft | 450 kts | 51° |
| 2026-05-04 01:19 | -31.58467 | 146.63539 | 37105 ft | 450 kts | 51° |
| 2026-05-04 01:19 | -31.55620 | 146.68647 | 37113 ft | 450 kts | 51° |
| 2026-05-04 01:20 | -31.52198 | 146.74804 | 37116 ft | 451 kts | 51° |
| 2026-05-04 01:20 | -31.48773 | 146.80952 | 37107 ft | 451 kts | 51° |
| 2026-05-04 01:21 | -31.45340 | 146.87100 | 37103 ft | 451 kts | 51° |
| 2026-05-04 01:21 | -31.41904 | 146.93249 | 37113 ft | 451 kts | 51° |
| 2026-05-04 01:22 | -31.38459 | 146.99388 | 37106 ft | 451 kts | 50° |
| 2026-05-04 01:22 | -31.35007 | 147.05535 | 37105 ft | 452 kts | 50° |
| 2026-05-04 01:23 | -31.31556 | 147.11677 | 37110 ft | 452 kts | 51° |
| 2026-05-04 01:23 | -31.28109 | 147.17837 | 37105 ft | 452 kts | 50° |
| 2026-05-04 01:24 | -31.24645 | 147.23977 | 37115 ft | 453 kts | 50° |
| 2026-05-04 01:24 | -31.21174 | 147.30108 | 37116 ft | 453 kts | 50° |
| 2026-05-04 01:25 | -31.17711 | 147.36246 | 37115 ft | 453 kts | 50° |
| 2026-05-04 01:25 | -31.14246 | 147.42390 | 37116 ft | 453 kts | 50° |
| 2026-05-04 01:26 | -31.10764 | 147.48515 | 37113 ft | 453 kts | 50° |
| 2026-05-04 01:26 | -31.07307 | 147.54593 | 37108 ft | 452 kts | 50° |
| 2026-05-04 01:27 | -31.03802 | 147.60747 | 37105 ft | 453 kts | 50° |
| 2026-05-04 01:27 | -31.00342 | 147.66840 | 37106 ft | 453 kts | 50° |
| 2026-05-04 01:28 | -30.96850 | 147.72963 | 37103 ft | 454 kts | 50° |
| 2026-05-04 01:28 | -30.93355 | 147.79084 | 37106 ft | 454 kts | 50° |
| 2026-05-04 01:29 | -30.89844 | 147.85190 | 37109 ft | 453 kts | 50° |
| 2026-05-04 01:29 | -30.86314 | 147.91265 | 37112 ft | 454 kts | 49° |
| 2026-05-04 01:30 | -30.82728 | 147.97309 | 37107 ft | 454 kts | 49° |
| 2026-05-04 01:30 | -30.79177 | 148.03389 | 37104 ft | 455 kts | 50° |
| 2026-05-04 01:31 | -30.75635 | 148.09479 | 37104 ft | 455 kts | 50° |
| 2026-05-04 01:31 | -30.72094 | 148.15572 | 37113 ft | 455 kts | 50° |
| 2026-05-04 01:32 | -30.68550 | 148.21668 | 37105 ft | 456 kts | 50° |
| 2026-05-04 01:32 | -30.65000 | 148.27767 | 37113 ft | 455 kts | 50° |
| 2026-05-04 01:33 | -30.61452 | 148.33855 | 37106 ft | 455 kts | 50° |
| 2026-05-04 01:33 | -30.57900 | 148.39940 | 37112 ft | 455 kts | 50° |
| 2026-05-04 01:34 | -30.54343 | 148.46024 | 37117 ft | 455 kts | 50° |
| 2026-05-04 01:34 | -30.50786 | 148.52100 | 37120 ft | 455 kts | 50° |
| 2026-05-04 01:35 | -30.47226 | 148.58177 | 37116 ft | 455 kts | 50° |
| 2026-05-04 01:35 | -30.43666 | 148.64236 | 37132 ft | 455 kts | 50° |
| 2026-05-04 01:36 | -30.40124 | 148.70257 | 37134 ft | 455 kts | 50° |
| 2026-05-04 01:36 | -30.36559 | 148.76309 | 37149 ft | 455 kts | 50° |
| 2026-05-04 01:37 | -30.32990 | 148.82359 | 37144 ft | 455 kts | 50° |
| 2026-05-04 01:37 | -30.29419 | 148.88402 | 37145 ft | 455 kts | 50° |
| 2026-05-04 01:38 | -30.25843 | 148.94439 | 37145 ft | 455 kts | 50° |
| 2026-05-04 01:38 | -30.22262 | 149.00486 | 37143 ft | 455 kts | 50° |
| 2026-05-04 01:39 | -30.18683 | 149.06517 | 37144 ft | 455 kts | 50° |
| 2026-05-04 01:39 | -30.15098 | 149.12549 | 37133 ft | 456 kts | 50° |
| 2026-05-04 01:40 | -30.11515 | 149.18573 | 37123 ft | 455 kts | 50° |
| 2026-05-04 01:40 | -30.07930 | 149.24586 | 37127 ft | 455 kts | 50° |
| 2026-05-04 01:41 | -30.04339 | 149.30601 | 37139 ft | 455 kts | 50° |
| 2026-05-04 01:41 | -30.00744 | 149.36618 | 37137 ft | 455 kts | 50° |
| 2026-05-04 01:42 | -29.97145 | 149.42623 | 37137 ft | 455 kts | 50° |
| 2026-05-04 01:42 | -29.93548 | 149.48618 | 37135 ft | 455 kts | 50° |
| 2026-05-04 01:43 | -29.89968 | 149.54582 | 37135 ft | 455 kts | 50° |
| 2026-05-04 01:43 | -29.86364 | 149.60582 | 37136 ft | 455 kts | 50° |
| 2026-05-04 01:44 | -29.82756 | 149.66573 | 37135 ft | 455 kts | 50° |
| 2026-05-04 01:44 | -29.79144 | 149.72550 | 37136 ft | 455 kts | 50° |
| 2026-05-04 01:45 | -29.75530 | 149.78523 | 37133 ft | 455 kts | 50° |
| 2026-05-04 01:45 | -29.70113 | 149.87493 | 37137 ft | 455 kts | 50° |
| 2026-05-04 01:46 | -29.66498 | 149.93464 | 37134 ft | 455 kts | 50° |
| 2026-05-04 01:46 | -29.62882 | 149.99431 | 37134 ft | 455 kts | 50° |
| 2026-05-04 01:47 | -29.59264 | 150.05394 | 37133 ft | 455 kts | 50° |
| 2026-05-04 01:47 | -29.55647 | 150.11347 | 37134 ft | 454 kts | 50° |
| 2026-05-04 01:48 | -29.52222 | 150.17473 | 37149 ft | 459 kts | 56° |
| 2026-05-04 01:48 | -29.49163 | 150.23920 | 37132 ft | 460 kts | 57° |
| 2026-05-04 01:49 | -29.46094 | 150.30350 | 37130 ft | 459 kts | 57° |
| 2026-05-04 01:49 | -29.43015 | 150.36768 | 37135 ft | 459 kts | 56° |
| 2026-05-04 01:50 | -29.39932 | 150.43179 | 37134 ft | 459 kts | 56° |
| 2026-05-04 01:50 | -29.36848 | 150.49585 | 37140 ft | 459 kts | 56° |
| 2026-05-04 01:51 | -29.33762 | 150.55986 | 37136 ft | 459 kts | 56° |
| 2026-05-04 01:51 | -29.30669 | 150.62391 | 37145 ft | 459 kts | 56° |
| 2026-05-04 01:52 | -29.27576 | 150.68792 | 37142 ft | 459 kts | 56° |
| 2026-05-04 01:52 | -29.24480 | 150.75181 | 37141 ft | 459 kts | 57° |
| 2026-05-04 01:53 | -29.21382 | 150.81568 | 37142 ft | 459 kts | 56° |
| 2026-05-04 01:53 | -29.18296 | 150.87914 | 37160 ft | 459 kts | 56° |
| 2026-05-04 01:54 | -29.15189 | 150.94296 | 37150 ft | 459 kts | 56° |
| 2026-05-04 01:54 | -29.12078 | 151.00676 | 37154 ft | 459 kts | 56° |
| 2026-05-04 01:55 | -29.08963 | 151.07052 | 37157 ft | 459 kts | 56° |
| 2026-05-04 01:55 | -29.05849 | 151.13415 | 37151 ft | 459 kts | 56° |
| 2026-05-04 01:56 | -29.02726 | 151.19784 | 37149 ft | 459 kts | 56° |
| 2026-05-04 01:56 | -28.99601 | 151.26148 | 37153 ft | 459 kts | 56° |
| 2026-05-04 01:57 | -28.96474 | 151.32506 | 37151 ft | 459 kts | 56° |
| 2026-05-04 01:57 | -28.93343 | 151.38860 | 37158 ft | 459 kts | 56° |
| 2026-05-04 01:58 | -28.90216 | 151.45201 | 37154 ft | 459 kts | 56° |
| 2026-05-04 01:58 | -28.87080 | 151.51549 | 37155 ft | 459 kts | 56° |
| 2026-05-04 01:59 | -28.83940 | 151.57890 | 37156 ft | 458 kts | 55° |
| 2026-05-04 01:59 | -28.82055 | 151.60773 | 37177 ft | 451 kts | 43° |
| 2026-05-04 01:59 | -28.79864 | 151.63315 | 37193 ft | 449 kts | 39° |
| 2026-05-04 02:00 | -28.75406 | 151.68293 | 37145 ft | 448 kts | 39° |
| 2026-05-04 02:00 | -28.70970 | 151.73284 | 37145 ft | 448 kts | 39° |
| 2026-05-04 02:01 | -28.66545 | 151.78285 | 37148 ft | 449 kts | 40° |
| 2026-05-04 02:01 | -28.62137 | 151.83258 | 37134 ft | 449 kts | 40° |
| 2026-05-04 02:02 | -28.57704 | 151.88253 | 37135 ft | 448 kts | 40° |
| 2026-05-04 02:02 | -28.53269 | 151.93228 | 37146 ft | 448 kts | 40° |
| 2026-05-04 02:03 | -28.48822 | 151.98205 | 37143 ft | 448 kts | 40° |
| 2026-05-04 02:03 | -28.44396 | 152.03200 | 37144 ft | 449 kts | 40° |
| 2026-05-04 02:04 | -28.42176 | 152.05694 | 37039 ft | 451 kts | 40° |
| 2026-05-04 02:04 | -28.39937 | 152.08210 | 36643 ft | 452 kts | 40° |
| 2026-05-04 02:04 | -28.37711 | 152.10714 | 36209 ft | 452 kts | 40° |
| 2026-05-04 02:04 | -28.35474 | 152.13222 | 35561 ft | 454 kts | 40° |
| 2026-05-04 02:05 | -28.33230 | 152.15739 | 34919 ft | 455 kts | 40° |
| 2026-05-04 02:05 | -28.30969 | 152.18269 | 34318 ft | 456 kts | 40° |
| 2026-05-04 02:05 | -28.28705 | 152.20804 | 33687 ft | 459 kts | 40° |
| 2026-05-04 02:05 | -28.26428 | 152.23349 | 33095 ft | 460 kts | 40° |
| 2026-05-04 02:06 | -28.24139 | 152.25898 | 32463 ft | 461 kts | 40° |
| 2026-05-04 02:06 | -28.21941 | 152.28345 | 31880 ft | 460 kts | 40° |
| 2026-05-04 02:06 | -28.20431 | 152.30026 | 31475 ft | 459 kts | 40° |
| 2026-05-04 02:06 | -28.17386 | 152.33411 | 30662 ft | 458 kts | 40° |
| 2026-05-04 02:07 | -28.15113 | 152.35938 | 30045 ft | 459 kts | 40° |
| 2026-05-04 02:07 | -28.13605 | 152.37614 | 29640 ft | 458 kts | 40° |
| 2026-05-04 02:07 | -28.11328 | 152.40145 | 29032 ft | 459 kts | 41° |
| 2026-05-04 02:07 | -28.09072 | 152.42651 | 28390 ft | 457 kts | 41° |
| 2026-05-04 02:08 | -28.06816 | 152.45155 | 27819 ft | 452 kts | 41° |
| 2026-05-04 02:08 | -28.04579 | 152.47636 | 27202 ft | 447 kts | 41° |
| 2026-05-04 02:08 | -28.02370 | 152.50085 | 26606 ft | 442 kts | 41° |
| 2026-05-04 02:08 | -28.00183 | 152.52509 | 26014 ft | 438 kts | 41° |
| 2026-05-04 02:09 | -27.98018 | 152.54904 | 25438 ft | 433 kts | 41° |
| 2026-05-04 02:09 | -27.95890 | 152.57297 | 24865 ft | 431 kts | 45° |
| 2026-05-04 02:09 | -27.94166 | 152.60069 | 24300 ft | 431 kts | 57° |
| 2026-05-04 02:09 | -27.92770 | 152.63060 | 23710 ft | 428 kts | 61° |
| 2026-05-04 02:10 | -27.91467 | 152.66006 | 23153 ft | 424 kts | 61° |
| 2026-05-04 02:10 | -27.90115 | 152.69010 | 22585 ft | 420 kts | 60° |
| 2026-05-04 02:10 | -27.88785 | 152.71932 | 22027 ft | 416 kts | 60° |
| 2026-05-04 02:10 | -27.87462 | 152.74816 | 21473 ft | 411 kts | 60° |
| 2026-05-04 02:11 | -27.86090 | 152.77634 | 20941 ft | 406 kts | 55° |
| 2026-05-04 02:11 | -27.84501 | 152.80242 | 20397 ft | 402 kts | 52° |
| 2026-05-04 02:11 | -27.82849 | 152.82771 | 19858 ft | 398 kts | 51° |
| 2026-05-04 02:11 | -27.81214 | 152.85274 | 19331 ft | 394 kts | 50° |
| 2026-05-04 02:12 | -27.79258 | 152.87377 | 18846 ft | 386 kts | 33° |
| 2026-05-04 02:12 | -27.77003 | 152.88996 | 18314 ft | 383 kts | 29° |
| 2026-05-04 02:12 | -27.74729 | 152.90536 | 17807 ft | 380 kts | 29° |
| 2026-05-04 02:12 | -27.72479 | 152.92080 | 17300 ft | 377 kts | 30° |
| 2026-05-04 02:13 | -27.70257 | 152.93625 | 16801 ft | 374 kts | 30° |
| 2026-05-04 02:13 | -27.68053 | 152.95162 | 16306 ft | 371 kts | 30° |
| 2026-05-04 02:13 | -27.65881 | 152.96688 | 15810 ft | 369 kts | 30° |
| 2026-05-04 02:13 | -27.63717 | 152.98216 | 15333 ft | 366 kts | 33° |
| 2026-05-04 02:14 | -27.61890 | 153.00189 | 14819 ft | 364 kts | 54° |
| 2026-05-04 02:14 | -27.60610 | 153.02595 | 14389 ft | 352 kts | 60° |
| 2026-05-04 02:14 | -27.59435 | 153.04983 | 13899 ft | 344 kts | 60° |
| 2026-05-04 02:14 | -27.58275 | 153.07304 | 13462 ft | 336 kts | 59° |
| 2026-05-04 02:15 | -27.57124 | 153.09562 | 13007 ft | 329 kts | 59° |
| 2026-05-04 02:15 | -27.55983 | 153.11779 | 12432 ft | 326 kts | 59° |
| 2026-05-04 02:15 | -27.54952 | 153.13770 | 12156 ft | 316 kts | 59° |
| 2026-05-04 02:15 | -27.53665 | 153.15707 | 11897 ft | 305 kts | 44° |
| 2026-05-04 02:16 | -27.52146 | 153.17287 | 11687 ft | 298 kts | 40° |
| 2026-05-04 02:16 | -27.50550 | 153.18819 | 11587 ft | 298 kts | 40° |
| 2026-05-04 02:16 | -27.48966 | 153.20340 | 11444 ft | 301 kts | 40° |
| 2026-05-04 02:16 | -27.47396 | 153.21857 | 11300 ft | 301 kts | 40° |
| 2026-05-04 02:17 | -27.45812 | 153.23394 | 11157 ft | 300 kts | 41° |
| 2026-05-04 02:17 | -27.44226 | 153.24934 | 10905 ft | 302 kts | 40° |
| 2026-05-04 02:17 | -27.42619 | 153.26493 | 10572 ft | 300 kts | 40° |
| 2026-05-04 02:17 | -27.41107 | 153.27952 | 10272 ft | 297 kts | 40° |
| 2026-05-04 02:18 | -27.39540 | 153.29464 | 9839 ft | 296 kts | 41° |
| 2026-05-04 02:18 | -27.38013 | 153.30942 | 9462 ft | 292 kts | 41° |
| 2026-05-04 02:18 | -27.36493 | 153.32416 | 9181 ft | 285 kts | 41° |
| 2026-05-04 02:18 | -27.34870 | 153.33644 | 9001 ft | 282 kts | 28° |
| 2026-05-04 02:19 | -27.33449 | 153.34405 | 8864 ft | 283 kts | 25° |
| 2026-05-04 02:19 | -27.31928 | 153.35165 | 8816 ft | 282 kts | 25° |
| 2026-05-04 02:19 | -27.30130 | 153.36070 | 8781 ft | 285 kts | 25° |
| 2026-05-04 02:19 | -27.28317 | 153.36988 | 8706 ft | 286 kts | 25° |
| 2026-05-04 02:20 | -27.26503 | 153.37908 | 8642 ft | 286 kts | 25° |
| 2026-05-04 02:20 | -27.24696 | 153.38833 | 8568 ft | 285 kts | 25° |
| 2026-05-04 02:20 | -27.22889 | 153.39756 | 8467 ft | 287 kts | 25° |
| 2026-05-04 02:20 | -27.21051 | 153.40652 | 8181 ft | 288 kts | 19° |
| 2026-05-04 02:21 | -27.19080 | 153.40786 | 7936 ft | 287 kts | 348° |
| 2026-05-04 02:21 | -27.17558 | 153.40023 | 7698 ft | 289 kts | 327° |
| 2026-05-04 02:21 | -27.16026 | 153.38572 | 7292 ft | 287 kts | 317° |
| 2026-05-04 02:21 | -27.14590 | 153.37025 | 6859 ft | 284 kts | 318° |
| 2026-05-04 02:22 | -27.13158 | 153.35524 | 6445 ft | 279 kts | 313° |
| 2026-05-04 02:22 | -27.12295 | 153.33652 | 6087 ft | 268 kts | 279° |
| 2026-05-04 02:22 | -27.12492 | 153.31660 | 5827 ft | 253 kts | 244° |
| 2026-05-04 02:22 | -27.13468 | 153.30080 | 5550 ft | 242 kts | 229° |
| 2026-05-04 02:23 | -27.14486 | 153.28599 | 5212 ft | 237 kts | 234° |
| 2026-05-04 02:23 | -27.15342 | 153.27051 | 4923 ft | 231 kts | 240° |
| 2026-05-04 02:23 | -27.16216 | 153.25661 | 5048 ft | 203 kts | 216° |
| 2026-05-04 02:23 | -27.17419 | 153.24945 | 5770 ft | 193 kts | 200° |
| 2026-05-04 02:24 | -27.18693 | 153.24312 | 6347 ft | 210 kts | 203° |
| 2026-05-04 02:24 | -27.20126 | 153.23558 | 6246 ft | 237 kts | 204° |
| 2026-05-04 02:24 | -27.21656 | 153.22782 | 5516 ft | 248 kts | 205° |
| 2026-05-04 02:24 | -27.23200 | 153.21939 | 5056 ft | 236 kts | 204° |
| 2026-05-04 02:25 | -27.24586 | 153.21134 | 5206 ft | 213 kts | 208° |
| 2026-05-04 02:25 | -27.25501 | 153.20467 | 7080 ft | 79 kts | 228° |
| 2026-05-04 02:25 | -27.25783 | 153.20116 | 7168 ft | 68 kts | 210° |
| 2026-05-04 02:25 | -27.26562 | 153.19478 | 6007 ft | 161 kts | 211° |